Airfield :
LOGIN :

Register | Disclaimer

   EN    FR    IT 

 










Legend :    VFR   Marginal VFR   IFR   Intensive IFR   Very Intensive IFR
Visi :
Ceiling :
>= 8 km
>= 3000ft
5 to 8 km
1000 to 3000 ft
1500m to 5 km
500 to 1000 ft
800 to 1500m
200 to 500 ft
< 800m
< 200 ft
Symbols :   Thunderstorms  Fog  Heavy snow  Heavy precipitations  Wind > 20 kt
SIGMETs :     Misc.  Thunderstorms  Icing  Turbulence  Mountain Waves  Volcanic Ashes






- Airport Elevation : 479 ft
- IATA code : DOL


LFRG - Deauville

CURRENT METAR :
  • 180530Z AUTO 03002KT CAVOK 01/M00 Q1025 NOSIG

EXPIRED METARs :
  • 180500Z AUTO 35003KT CAVOK 01/M01 Q1025
  • 180430Z AUTO 36002KT CAVOK 01/M00 Q1024
  • 180400Z AUTO VRB03KT CAVOK 01/M00 Q1025
  • 180330Z AUTO 01003KT CAVOK 01/M00 Q1025
  • 180300Z AUTO 02003KT CAVOK 01/00 Q1025

TAF TAF LFRG
Valid from the 18 at 06:00 until the 18 at 15:00 UTC


180500Z 1806/1815 VRB05KT CAVOK
BECMG 1806/1809 01006KT SCT030
BECMG 1813/1815 36012KT
ATIS : +33 2 31 65 65 36



MET'MAP, your aeronautical weather chart ! - Copyright ORBIFLY December 2007 - Disclaimer

ORBIFLY MET'MAP TEAM :

Programming & Development : Alexandra Zaïnal
Concept & original design : Baudouin d'Aumeries
Assistance for programming : Marc-Olivier Méhu
Technical & hardware support : Manuel Goepfert

Contact : metmap@orbifly.com




SOURCES & CREDITS :

   NOAA